Time;durP1;ratioP1;P1;durP2;ratioP2;P2;SDS_P1;SDS_P2;PMS_P1;PMS_P2;Temp;Humidity;BMP_temperature;BMP_pressure;BME280_temperature;BME280_humidity;BME280_pressure;Samples;Min_cycle;Max_cycle;Signal;HPM_P1;HPM_P2
2023/01/22 00:01:24;;;;;;;2.45;1.65;;;13.20;45.70;;;;;;5085665;28;45268;-71
2023/01/22 00:03:52;;;;;;;1.85;1.70;;;13.20;45.70;;;;;;5086108;27;45218;-72
2023/01/22 00:06:19;;;;;;;2.08;1.88;;;13.20;45.80;;;;;;5085936;27;45324;-71
2023/01/22 00:08:47;;;;;;;2.15;1.90;;;13.20;45.70;;;;;;5086194;27;45335;-71
2023/01/22 00:11:14;;;;;;;1.67;1.58;;;13.20;45.80;;;;;;5085894;27;47566;-72
2023/01/22 00:13:41;;;;;;;1.77;1.67;;;13.20;45.80;;;;;;5085848;27;45207;-71
2023/01/22 00:16:10;;;;;;;2.03;1.80;;;13.20;45.80;;;;;;5085989;27;45181;-72
2023/01/22 00:18:37;;;;;;;2.30;1.60;;;13.20;45.80;;;;;;5085858;27;45415;-71
2023/01/22 00:21:04;;;;;;;1.52;1.45;;;13.20;45.90;;;;;;5085699;27;47591;-72
2023/01/22 00:23:31;;;;;;;1.60;1.50;;;13.20;45.80;;;;;;5085406;27;45331;-71
2023/01/22 00:26:01;;;;;;;2.55;1.70;;;13.10;45.80;;;;;;5085828;27;45260;-72
2023/01/22 00:28:28;;;;;;;1.90;1.60;;;13.10;45.80;;;;;;5086025;27;45212;-71
2023/01/22 00:30:58;;;;;;;2.47;1.65;;;13.10;45.80;;;;;;5085445;27;46402;-71
2023/01/22 00:33:26;;;;;;;1.92;1.83;;;13.10;45.80;;;;;;5085722;27;45366;-71
2023/01/22 00:35:53;;;;;;;1.73;1.60;;;13.10;45.80;;;;;;5085624;27;45271;-71
2023/01/22 00:38:20;;;;;;;1.83;1.65;;;13.10;45.80;;;;;;5085540;27;45186;-71
2023/01/22 00:40:47;;;;;;;1.60;1.50;;;13.10;45.80;;;;;;5085353;27;45538;-72
2023/01/22 00:43:14;;;;;;;1.70;1.60;;;13.10;45.80;;;;;;5085532;27;45397;-72
2023/01/22 00:45:41;;;;;;;2.35;1.70;;;13.10;45.80;;;;;;5085619;27;45314;-71
2023/01/22 00:48:08;;;;;;;1.60;1.50;;;13.10;45.80;;;;;;5085641;27;45317;-71
2023/01/22 00:50:36;;;;;;;2.70;1.65;;;13.10;45.80;;;;;;5085543;27;46097;-72
2023/01/22 00:53:03;;;;;;;2.00;1.80;;;13.10;45.90;;;;;;5085381;27;45156;-72
2023/01/22 00:55:29;;;;;;;2.17;1.80;;;13.10;45.80;;;;;;5085563;27;45279;-72
2023/01/22 00:57:56;;;;;;;2.15;1.77;;;13.10;45.90;;;;;;5085604;27;45244;-72
2023/01/22 01:00:23;;;;;;;1.40;1.30;;;13.00;45.80;;;;;;5086746;27;45898;-71
2023/01/22 01:05:41;;;;;;;2.03;1.60;;;13.00;45.80;;;;;;5077496;27;45419;-71
2023/01/22 01:08:08;;;;;;;2.33;1.77;;;13.00;46.40;;;;;;5088936;27;45320;-71
2023/01/22 01:10:34;;;;;;;1.38;1.27;;;13.00;45.90;;;;;;5088577;27;46392;-71
2023/01/22 01:13:01;;;;;;;2.05;1.50;;;13.00;46.50;;;;;;5088696;27;45171;-72
2023/01/22 01:15:28;;;;;;;1.73;1.63;;;13.00;45.90;;;;;;5088718;27;45124;-71
2023/01/22 01:17:55;;;;;;;1.70;1.60;;;13.00;45.90;;;;;;5088743;27;45384;-71
2023/01/22 01:20:22;;;;;;;1.70;1.57;;;13.00;45.90;;;;;;5088380;27;45287;-71
2023/01/22 01:22:50;;;;;;;2.20;2.00;;;13.00;45.90;;;;;;5088500;27;45213;-71
2023/01/22 01:25:17;;;;;;;2.63;1.75;;;13.00;45.90;;;;;;5088255;27;45283;-71
2023/01/22 01:27:44;;;;;;;1.80;1.63;;;12.90;45.90;;;;;;5088464;27;45404;-71
2023/01/22 01:30:11;;;;;;;1.63;1.52;;;12.90;45.90;;;;;;5088167;27;45425;-72
2023/01/22 01:32:38;;;;;;;1.38;1.25;;;12.90;45.90;;;;;;5088284;27;45315;-72
2023/01/22 01:35:09;;;;;;;2.40;1.90;;;12.90;45.90;;;;;;5088427;27;45130;-71
2023/01/22 01:37:36;;;;;;;1.30;1.20;;;12.90;45.90;;;;;;5088298;27;45399;-71
2023/01/22 01:40:05;;;;;;;1.67;1.40;;;12.90;46.50;;;;;;5088159;27;45395;-71
2023/01/22 01:42:34;;;;;;;1.73;1.63;;;12.90;45.90;;;;;;5088064;27;45252;-71
2023/01/22 01:45:26;;;;;;;1.50;1.40;;;12.90;45.90;;;;;;5088272;27;45374;-71
2023/01/22 01:47:55;;;;;;;1.52;1.40;;;12.90;46.00;;;;;;5078200;27;45185;-72
2023/01/22 01:50:21;;;;;;;2.45;1.50;;;12.90;46.00;;;;;;5087814;27;45523;-71
2023/01/22 01:52:48;;;;;;;1.55;1.40;;;12.90;46.00;;;;;;5087967;27;45292;-71
2023/01/22 01:55:17;;;;;;;1.53;1.40;;;12.90;46.00;;;;;;5088147;27;45257;-71
2023/01/22 01:57:44;;;;;;;1.63;1.52;;;12.90;46.00;;;;;;5088155;27;45396;-71
2023/01/22 02:00:12;;;;;;;1.40;1.30;;;12.90;46.00;;;;;;5087703;27;46487;-71
2023/01/22 02:02:39;;;;;;;1.83;1.60;;;12.90;46.10;;;;;;5087601;27;45241;-71
2023/01/22 02:05:06;;;;;;;1.73;1.60;;;12.90;46.60;;;;;;5088076;27;45276;-71
2023/01/22 02:07:33;;;;;;;1.30;1.20;;;12.80;45.90;;;;;;5088085;27;45188;-71
2023/01/22 02:10:03;;;;;;;1.60;1.50;;;12.90;46.00;;;;;;5087651;27;45363;-71
2023/01/22 02:12:32;;;;;;;1.63;1.52;;;12.90;46.00;;;;;;5086428;27;45272;-71
2023/01/22 02:14:59;;;;;;;1.50;1.35;;;12.90;45.90;;;;;;5087744;27;45281;-70
2023/01/22 02:17:26;;;;;;;1.60;1.50;;;12.90;45.90;;;;;;5087753;27;45371;-71
2023/01/22 02:19:53;;;;;;;1.50;1.40;;;12.90;45.80;;;;;;5087484;27;46412;-71
2023/01/22 02:22:22;;;;;;;1.45;1.35;;;12.90;45.80;;;;;;5087243;27;45276;-71
2023/01/22 02:24:49;;;;;;;1.50;1.40;;;12.90;45.80;;;;;;5087359;27;45218;-71
2023/01/22 02:27:16;;;;;;;2.13;1.37;;;13.00;45.80;;;;;;5084957;27;45299;-71
2023/01/22 02:29:42;;;;;;;1.50;1.40;;;13.00;45.80;;;;;;5087269;27;46304;-71
2023/01/22 02:32:09;;;;;;;1.53;1.43;;;13.00;45.80;;;;;;5087421;27;45212;-71
2023/01/22 02:34:36;;;;;;;2.10;1.60;;;13.00;45.60;;;;;;5087457;27;45118;-71
2023/01/22 02:37:03;;;;;;;1.37;1.27;;;13.00;45.60;;;;;;5087548;27;45398;-71
2023/01/22 02:39:32;;;;;;;1.33;1.23;;;13.10;45.60;;;;;;5087111;28;47422;-69
2023/01/22 02:41:59;;;;;;;1.60;1.50;;;13.10;45.60;;;;;;5087077;27;45406;-71
2023/01/22 02:44:26;;;;;;;1.40;1.30;;;13.10;45.50;;;;;;5087186;27;45263;-71
2023/01/22 02:46:53;;;;;;;2.07;1.57;;;13.10;45.50;;;;;;5087355;27;45399;-72
2023/01/22 02:49:20;;;;;;;1.40;1.23;;;13.10;45.50;;;;;;5086990;27;45364;-71
2023/01/22 02:51:47;;;;;;;1.35;1.23;;;13.00;46.20;;;;;;5086948;27;45231;-71
2023/01/22 02:54:14;;;;;;;1.50;1.40;;;13.00;45.50;;;;;;5087173;27;45384;-71
2023/01/22 02:56:42;;;;;;;1.50;1.40;;;13.00;45.60;;;;;;5087543;27;45235;-71
2023/01/22 02:59:09;;;;;;;1.50;1.40;;;13.00;45.60;;;;;;5086897;27;45199;-72
2023/01/22 03:01:36;;;;;;;1.40;1.33;;;13.00;45.60;;;;;;5086706;27;45311;-71
2023/01/22 03:04:09;;;;;;;1.40;1.30;;;13.00;45.70;;;;;;5086886;27;45322;-71
2023/01/22 03:06:36;;;;;;;1.53;1.40;;;12.90;45.70;;;;;;5086912;27;45221;-71
2023/01/22 03:09:03;;;;;;;1.80;1.57;;;12.90;45.80;;;;;;5086503;27;45302;-71
2023/01/22 03:11:30;;;;;;;1.40;1.30;;;12.90;45.80;;;;;;5086672;27;45207;-71
2023/01/22 03:22:13;;;;;;;1.53;1.30;;;12.80;46.50;;;;;;5086501;28;45264;-71
2023/01/22 03:24:39;;;;;;;1.55;1.45;;;12.80;46.00;;;;;;5086074;27;45228;-71
2023/01/22 03:27:06;;;;;;;1.83;1.27;;;12.80;46.00;;;;;;5086707;27;45427;-71
2023/01/22 03:29:37;;;;;;;1.30;1.20;;;12.80;46.00;;;;;;5086398;27;46730;-71
2023/01/22 03:32:04;;;;;;;1.47;1.37;;;12.80;46.60;;;;;;5086670;27;45185;-71
2023/01/22 03:34:30;;;;;;;1.30;1.20;;;12.80;46.10;;;;;;5086372;27;45289;-71
2023/01/22 03:36:58;;;;;;;1.43;1.20;;;12.80;46.10;;;;;;5086521;27;45237;-71
2023/01/22 03:39:25;;;;;;;1.17;1.10;;;12.80;46.20;;;;;;5086179;27;47533;-71
2023/01/22 03:41:52;;;;;;;1.70;1.17;;;12.80;46.20;;;;;;5086112;27;45240;-71
2023/01/22 03:44:19;;;;;;;1.87;1.30;;;12.70;46.10;;;;;;5086265;27;45178;-71
2023/01/22 03:46:47;;;;;;;1.90;1.40;;;12.80;46.20;;;;;;5086191;27;45350;-71
2023/01/22 03:49:14;;;;;;;1.20;1.10;;;12.80;46.00;;;;;;5085883;27;45597;-71
2023/01/22 03:51:41;;;;;;;1.10;1.00;;;12.80;46.00;;;;;;5086224;27;45223;-71
2023/01/22 03:54:09;;;;;;;0.97;0.97;;;12.90;45.90;;;;;;5086038;27;45209;-71
2023/01/22 03:56:36;;;;;;;1.27;1.20;;;13.00;45.80;;;;;;5086338;27;45314;-71
2023/01/22 03:59:03;;;;;;;1.17;1.07;;;13.10;45.60;;;;;;5085859;27;45321;-71
2023/01/22 04:01:30;;;;;;;1.03;1.03;;;13.10;45.40;;;;;;5085702;27;45356;-71
2023/01/22 04:03:58;;;;;;;1.77;1.43;;;13.20;45.30;;;;;;5085913;27;45200;-71
2023/01/22 04:06:25;;;;;;;1.40;1.30;;;13.20;45.20;;;;;;5086197;27;45177;-71
2023/01/22 04:08:53;;;;;;;1.47;1.23;;;13.20;45.20;;;;;;5085721;27;45298;-71
2023/01/22 04:11:20;;;;;;;1.50;1.40;;;13.20;45.20;;;;;;5085852;27;45322;-70
2023/01/22 04:13:47;;;;;;;2.35;1.45;;;13.20;45.20;;;;;;5085866;27;45300;-71
2023/01/22 04:16:14;;;;;;;1.48;1.38;;;13.20;45.30;;;;;;5086045;27;45490;-71
2023/01/22 04:18:41;;;;;;;1.25;1.15;;;13.10;45.40;;;;;;5085790;27;47346;-71
2023/01/22 04:21:09;;;;;;;1.50;1.40;;;13.10;45.40;;;;;;5085551;27;45414;-71
2023/01/22 04:23:36;;;;;;;1.03;0.93;;;13.10;45.40;;;;;;5085577;27;45186;-71
2023/01/22 04:26:03;;;;;;;1.50;1.40;;;13.00;45.50;;;;;;5085979;27;45227;-71
2023/01/22 04:28:33;;;;;;;1.30;1.20;;;13.00;45.60;;;;;;5085402;27;45493;-71
2023/01/22 04:31:00;;;;;;;1.13;1.10;;;13.00;45.60;;;;;;5085668;27;45315;-71
2023/01/22 04:33:26;;;;;;;1.23;1.13;;;13.00;45.80;;;;;;5085605;27;45371;-71
2023/01/22 04:35:54;;;;;;;1.70;1.30;;;12.90;45.80;;;;;;5088318;27;45352;-71
2023/01/22 04:38:22;;;;;;;1.80;1.30;;;12.90;45.80;;;;;;5088708;27;45577;-71
2023/01/22 04:40:49;;;;;;;1.73;1.10;;;12.90;45.80;;;;;;5089052;27;45248;-71
2023/01/22 04:43:15;;;;;;;1.25;1.15;;;12.90;45.90;;;;;;5089067;27;45244;-71
2023/01/22 04:45:42;;;;;;;1.37;1.27;;;12.90;46.00;;;;;;5089238;27;45411;-71
2023/01/22 04:48:09;;;;;;;1.40;1.30;;;12.90;46.00;;;;;;5088806;27;45238;-71
2023/01/22 04:50:36;;;;;;;1.50;1.40;;;12.90;46.00;;;;;;5088807;27;45264;-71
2023/01/22 04:53:03;;;;;;;1.50;1.40;;;12.80;46.00;;;;;;5088948;27;45289;-71
2023/01/22 04:55:32;;;;;;;1.23;1.13;;;12.80;46.10;;;;;;5089078;27;45304;-71
2023/01/22 04:57:59;;;;;;;1.33;1.23;;;12.80;46.10;;;;;;5088649;27;46377;-71
2023/01/22 05:00:26;;;;;;;2.30;1.47;;;12.80;46.10;;;;;;5088812;27;45198;-71
2023/01/22 05:02:56;;;;;;;1.27;1.20;;;12.80;46.10;;;;;;5088842;27;45298;-71
2023/01/22 05:05:23;;;;;;;2.00;1.20;;;12.80;46.20;;;;;;5089102;27;45220;-71
2023/01/22 05:07:49;;;;;;;1.50;1.40;;;12.80;46.20;;;;;;5088454;27;45379;-71
2023/01/22 05:10:17;;;;;;;1.60;1.40;;;12.80;46.20;;;;;;5088592;27;45330;-72
2023/01/22 05:12:45;;;;;;;1.40;1.30;;;12.70;46.20;;;;;;5089022;27;45291;-71
2023/01/22 05:15:12;;;;;;;1.67;1.40;;;12.70;46.30;;;;;;5088837;27;45328;-71
2023/01/22 05:17:39;;;;;;;1.43;1.33;;;12.70;46.20;;;;;;5088531;27;47519;-71
2023/01/22 05:20:06;;;;;;;1.77;1.40;;;12.70;46.20;;;;;;5088463;27;45264;-71
2023/01/22 05:22:33;;;;;;;1.40;1.30;;;12.70;46.30;;;;;;5088526;27;45322;-71
2023/01/22 05:25:00;;;;;;;1.17;1.10;;;12.70;46.30;;;;;;5088269;27;45360;-71
2023/01/22 05:27:27;;;;;;;1.40;1.30;;;12.70;46.30;;;;;;5088048;27;46441;-71
2023/01/22 05:29:55;;;;;;;1.40;1.30;;;12.70;46.30;;;;;;5088416;27;45250;-71
2023/01/22 05:32:22;;;;;;;1.50;1.40;;;12.70;46.40;;;;;;5088315;27;45241;-71
2023/01/22 05:34:49;;;;;;;1.47;1.20;;;12.70;46.40;;;;;;5088482;27;45478;-71
2023/01/22 05:37:16;;;;;;;1.20;1.10;;;12.70;46.40;;;;;;5087949;27;45480;-72
2023/01/22 05:39:43;;;;;;;1.80;1.60;;;12.70;46.50;;;;;;5088120;27;45230;-68
2023/01/22 05:42:13;;;;;;;1.43;1.33;;;12.70;46.30;;;;;;5088225;27;45212;-71
2023/01/22 05:44:40;;;;;;;2.03;1.40;;;12.70;46.20;;;;;;5088275;27;45316;-71
2023/01/22 05:47:08;;;;;;;1.33;1.23;;;12.80;46.10;;;;;;5087666;27;46363;-71
2023/01/22 05:49:35;;;;;;;1.50;1.30;;;12.90;46.00;;;;;;5087986;27;45165;-71
2023/01/22 05:52:02;;;;;;;1.40;1.30;;;13.00;45.80;;;;;;5088128;27;45276;-71
2023/01/22 05:54:29;;;;;;;1.30;1.20;;;13.10;45.70;;;;;;5088141;27;45280;-72
2023/01/22 05:56:56;;;;;;;1.93;1.40;;;13.10;45.50;;;;;;5087674;27;46396;-71
2023/01/22 05:59:23;;;;;;;1.47;1.37;;;13.10;45.50;;;;;;5087863;27;45260;-71
2023/01/22 06:01:49;;;;;;;1.67;1.40;;;13.10;45.40;;;;;;5087775;27;45189;-71
2023/01/22 06:04:18;;;;;;;1.70;1.60;;;13.10;45.40;;;;;;5088023;27;45392;-71
2023/01/22 06:06:45;;;;;;;1.80;1.30;;;13.10;45.50;;;;;;5087555;27;46336;-71
2023/01/22 06:09:12;;;;;;;1.83;1.33;;;13.10;45.50;;;;;;5087660;27;45256;-71
2023/01/22 06:11:39;;;;;;;2.20;1.30;;;13.10;45.60;;;;;;5087904;27;45275;-71
2023/01/22 06:14:06;;;;;;;1.47;1.37;;;13.00;45.60;;;;;;5087879;27;45371;-71
2023/01/22 06:16:33;;;;;;;1.60;1.43;;;13.00;45.70;;;;;;5087491;27;45484;-71
2023/01/22 06:19:00;;;;;;;2.57;1.77;;;13.00;45.80;;;;;;5087543;27;45406;-69
2023/01/22 06:21:28;;;;;;;1.87;1.27;;;12.90;45.80;;;;;;5087627;27;45204;-71
2023/01/22 06:23:55;;;;;;;1.40;1.30;;;12.90;46.50;;;;;;5087355;27;45379;-71
2023/01/22 06:26:22;;;;;;;1.40;1.30;;;12.90;46.00;;;;;;5087209;27;46464;-71
2023/01/22 06:28:49;;;;;;;1.57;1.30;;;12.90;46.00;;;;;;5087111;27;45319;-71
2023/01/22 06:31:15;;;;;;;1.60;1.50;;;12.80;46.00;;;;;;5087451;27;45306;-71
2023/01/22 06:33:42;;;;;;;1.97;1.60;;;12.80;46.00;;;;;;5087627;27;45394;-71
2023/01/22 06:36:09;;;;;;;1.50;1.40;;;12.80;46.10;;;;;;5087285;27;46621;-72
2023/01/22 06:38:38;;;;;;;1.67;1.50;;;12.80;46.10;;;;;;5087065;27;45203;-71
2023/01/22 06:41:05;;;;;;;1.60;1.50;;;12.80;46.20;;;;;;5087274;27;45362;-71
2023/01/22 06:43:31;;;;;;;1.77;1.40;;;12.80;46.20;;;;;;5087189;27;45381;-71
2023/01/22 06:45:58;;;;;;;1.53;1.43;;;12.70;46.20;;;;;;5086724;27;48257;-72
2023/01/22 06:48:25;;;;;;;1.30;1.20;;;12.70;46.30;;;;;;5087085;27;45267;-71
2023/01/22 06:50:52;;;;;;;1.43;1.33;;;12.70;46.30;;;;;;5087188;27;45153;-72
2023/01/22 06:53:19;;;;;;;1.87;1.43;;;12.70;46.30;;;;;;5087188;28;45514;-71
2023/01/22 06:55:47;;;;;;;1.67;1.50;;;12.70;46.30;;;;;;5086794;27;46338;-72
2023/01/22 06:58:14;;;;;;;1.97;1.60;;;12.70;46.30;;;;;;5086204;27;45280;-71
2023/01/22 07:00:41;;;;;;;1.60;1.33;;;12.70;46.30;;;;;;5087014;27;45226;-72
2023/01/22 07:03:08;;;;;;;1.67;1.40;;;12.70;46.40;;;;;;5087162;27;45291;-71
2023/01/22 07:05:35;;;;;;;1.63;1.50;;;12.70;46.40;;;;;;5086718;27;45242;-71
2023/01/22 07:08:02;;;;;;;1.53;1.40;;;12.70;46.40;;;;;;5086605;27;45211;-72
2023/01/22 07:10:29;;;;;;;1.60;1.50;;;12.60;47.00;;;;;;5086859;27;45216;-71
2023/01/22 07:12:58;;;;;;;1.77;1.53;;;12.60;46.40;;;;;;5086923;27;45165;-71
2023/01/22 07:15:25;;;;;;;1.37;1.27;;;12.60;47.00;;;;;;5086444;27;45433;-70
2023/01/22 07:17:52;;;;;;;1.40;1.30;;;12.60;46.40;;;;;;5086432;27;45310;-70
2023/01/22 07:20:19;;;;;;;1.87;1.40;;;12.60;46.40;;;;;;5086578;27;45260;-70
2023/01/22 07:22:46;;;;;;;1.50;1.40;;;12.60;46.40;;;;;;5086775;27;45209;-71
2023/01/22 07:25:13;;;;;;;1.40;1.30;;;12.60;46.40;;;;;;5086041;27;46369;-71
2023/01/22 07:27:40;;;;;;;1.97;1.70;;;12.70;46.30;;;;;;5086409;27;45423;-71
2023/01/22 07:30:09;;;;;;;1.70;1.47;;;12.70;46.20;;;;;;5086623;27;45228;-71
2023/01/22 07:32:36;;;;;;;1.40;1.30;;;12.80;46.10;;;;;;5086644;27;45459;-71
2023/01/22 07:35:03;;;;;;;1.87;1.77;;;12.90;45.90;;;;;;5085862;27;45380;-71
2023/01/22 07:37:30;;;;;;;1.23;1.17;;;13.00;45.70;;;;;;5086353;27;45431;-71
2023/01/22 07:39:57;;;;;;;2.03;1.60;;;13.10;45.60;;;;;;5086359;27;45342;-70
2023/01/22 07:42:24;;;;;;;1.77;1.50;;;13.10;45.50;;;;;;5086543;27;45123;-71
2023/01/22 07:44:51;;;;;;;1.60;1.50;;;13.10;45.40;;;;;;5086258;27;47408;-72
2023/01/22 07:47:19;;;;;;;1.58;1.48;;;13.10;45.40;;;;;;5086156;27;45364;-70
2023/01/22 07:49:46;;;;;;;1.53;1.43;;;13.10;45.50;;;;;;5086248;27;45302;-72
2023/01/22 07:52:13;;;;;;;1.70;1.43;;;13.10;45.50;;;;;;5086266;27;45297;-72
2023/01/22 07:54:40;;;;;;;1.90;1.70;;;13.10;45.50;;;;;;5085966;27;46480;-71
2023/01/22 07:57:06;;;;;;;2.40;1.90;;;13.00;45.50;;;;;;5085906;27;45205;-71
2023/01/22 07:59:35;;;;;;;1.80;1.60;;;13.00;45.50;;;;;;5086123;27;45156;-71
2023/01/22 08:02:02;;;;;;;2.25;1.90;;;13.00;45.60;;;;;;5086112;27;45462;-71
2023/01/22 08:04:30;;;;;;;1.93;1.63;;;13.00;45.70;;;;;;5085678;27;45207;-70
2023/01/22 08:06:57;;;;;;;2.53;1.83;;;12.90;45.70;;;;;;5085815;27;45208;-71
2023/01/22 08:09:24;;;;;;;1.57;1.40;;;12.90;45.90;;;;;;5084898;27;45249;-71
2023/01/22 08:11:52;;;;;;;1.73;1.43;;;12.90;45.90;;;;;;5086213;27;45315;-70
2023/01/22 08:14:19;;;;;;;1.50;1.40;;;12.90;46.00;;;;;;5085862;27;46361;-71
2023/01/22 08:16:46;;;;;;;1.90;1.50;;;12.80;46.60;;;;;;5085718;27;45176;-71
2023/01/22 08:19:13;;;;;;;1.47;1.37;;;12.80;46.10;;;;;;5085988;27;45358;-70
2023/01/22 08:21:41;;;;;;;1.73;1.50;;;12.80;46.10;;;;;;5086019;27;45623;-71
2023/01/22 08:24:09;;;;;;;1.87;1.40;;;12.80;46.10;;;;;;5085278;27;45345;-70
2023/01/22 08:26:36;;;;;;;1.73;1.60;;;12.80;46.20;;;;;;5085581;27;45239;-71
2023/01/22 08:29:03;;;;;;;2.00;1.80;;;12.80;46.20;;;;;;5085805;27;45206;-71
2023/01/22 08:31:30;;;;;;;1.50;1.33;;;12.80;46.20;;;;;;5085792;27;45462;-71
2023/01/22 08:33:58;;;;;;;1.90;1.60;;;12.80;46.20;;;;;;5085561;27;46389;-70
2023/01/22 08:36:25;;;;;;;1.67;1.40;;;12.80;46.20;;;;;;5085507;27;45300;-71
2023/01/22 08:38:53;;;;;;;1.60;1.30;;;12.80;46.30;;;;;;5085653;27;45289;-72
2023/01/22 08:41:20;;;;;;;2.17;1.57;;;12.80;47.00;;;;;;5085698;27;45417;-71
2023/01/22 08:43:47;;;;;;;1.90;1.70;;;12.80;46.30;;;;;;5085443;27;46344;-71
2023/01/22 08:46:14;;;;;;;1.50;1.40;;;12.80;46.30;;;;;;5085555;27;45290;-71
2023/01/22 08:48:42;;;;;;;1.47;1.37;;;12.80;46.30;;;;;;5085428;27;45304;-70
2023/01/22 08:51:09;;;;;;;1.50;1.40;;;12.70;46.40;;;;;;5085667;27;45272;-71
2023/01/22 08:53:36;;;;;;;1.60;1.43;;;12.70;46.40;;;;;;5085131;27;46359;-70
2023/01/22 08:56:05;;;;;;;2.27;1.77;;;12.70;46.40;;;;;;5085207;27;45303;-70
2023/01/22 08:58:32;;;;;;;2.23;1.40;;;12.70;46.40;;;;;;5085256;27;45208;-70
2023/01/22 09:00:59;;;;;;;2.27;1.30;;;12.70;46.40;;;;;;5085497;27;45470;-71
2023/01/22 09:03:26;;;;;;;1.93;1.50;;;12.70;46.40;;;;;;5085175;27;45514;-71
2023/01/22 09:05:53;;;;;;;1.73;1.63;;;12.70;46.50;;;;;;5085175;27;45332;-71
2023/01/22 09:08:20;;;;;;;1.87;1.77;;;12.70;46.50;;;;;;5085060;27;45306;-70
2023/01/22 09:10:47;;;;;;;1.43;1.33;;;12.70;46.50;;;;;;5085231;28;45499;-71
2023/01/22 09:13:15;;;;;;;1.40;1.30;;;12.70;46.50;;;;;;5084906;27;45481;-70
2023/01/22 09:15:42;;;;;;;1.50;1.40;;;12.70;46.50;;;;;;5084950;27;45370;-71
2023/01/22 09:18:09;;;;;;;1.40;1.30;;;12.70;46.60;;;;;;5085458;27;45276;-72
2023/01/22 09:20:36;;;;;;;1.73;1.27;;;12.70;46.60;;;;;;5086073;27;45558;-70
2023/01/22 09:23:02;;;;;;;1.37;1.27;;;12.70;46.60;;;;;;5088697;27;45248;-70
2023/01/22 09:25:29;;;;;;;1.37;1.27;;;12.70;46.60;;;;;;5088397;27;45398;-72
2023/01/22 09:27:59;;;;;;;1.70;1.60;;;12.70;46.60;;;;;;5088472;27;45382;-71
2023/01/22 09:30:28;;;;;;;1.53;1.20;;;12.70;46.60;;;;;;5088931;27;45185;-71
2023/01/22 09:32:55;;;;;;;1.60;1.50;;;12.70;46.70;;;;;;5088646;27;45491;-71
2023/01/22 09:35:22;;;;;;;1.90;1.70;;;12.70;46.70;;;;;;5088426;27;45302;-71
2023/01/22 09:37:49;;;;;;;1.70;1.50;;;12.70;46.70;;;;;;5088632;27;45186;-71
2023/01/22 09:40:24;;;;;;;1.50;1.20;;;12.70;46.70;;;;;;5088768;27;45396;-71
2023/01/22 09:42:51;;;;;;;1.40;1.23;;;12.70;46.80;;;;;;5088124;27;46401;-71
2023/01/22 09:45:23;;;;;;;2.03;1.47;;;12.70;46.80;;;;;;5088478;27;45202;-71
2023/01/22 09:47:52;;;;;;;1.63;1.50;;;12.70;46.70;;;;;;5088476;27;45205;-71
2023/01/22 09:50:21;;;;;;;1.80;1.60;;;12.80;46.60;;;;;;5088624;27;45569;-71
2023/01/22 09:52:48;;;;;;;1.47;1.37;;;12.90;46.40;;;;;;5088423;27;45298;-72
2023/01/22 09:55:15;;;;;;;2.30;1.60;;;13.00;46.20;;;;;;5088165;28;45204;-71
2023/01/22 09:57:45;;;;;;;1.87;1.67;;;13.10;46.00;;;;;;5088301;27;45245;-71
2023/01/22 10:00:15;;;;;;;2.83;1.47;;;13.20;45.80;;;;;;5088629;27;45295;-72
2023/01/22 10:02:44;;;;;;;1.33;1.23;;;13.30;45.60;;;;;;5087932;27;45257;-71
2023/01/22 10:05:19;;;;;;;1.43;1.33;;;13.30;45.60;;;;;;5088180;27;45246;-71
2023/01/22 10:07:50;;;;;;;2.97;1.43;;;13.20;45.50;;;;;;5088085;27;45366;-70
2023/01/22 10:10:19;;;;;;;1.83;1.50;;;13.30;45.60;;;;;;5088460;27;45135;-69
2023/01/22 10:12:47;;;;;;;1.60;1.40;;;13.20;45.60;;;;;;5087868;27;45483;-70
2023/01/22 10:15:15;;;;;;;1.83;1.38;;;13.20;45.80;;;;;;5088297;27;45419;-70
2023/01/22 10:17:42;;;;;;;1.60;1.50;;;13.10;45.80;;;;;;5087992;27;45237;-70
2023/01/22 10:20:12;;;;;;;1.63;1.30;;;13.10;45.80;;;;;;5088142;27;45255;-71
2023/01/22 10:22:40;;;;;;;1.30;1.20;;;13.10;45.90;;;;;;5087388;27;45326;-70
2023/01/22 10:25:12;;;;;;;1.90;1.67;;;13.10;46.00;;;;;;5087490;27;45248;-71
2023/01/22 10:27:39;;;;;;;1.37;1.27;;;13.10;46.10;;;;;;5088003;27;45265;-69
2023/01/22 10:30:09;;;;;;;2.00;1.60;;;13.10;46.20;;;;;;5087990;28;45664;-72
2023/01/22 10:32:36;;;;;;;1.53;1.27;;;13.10;46.20;;;;;;5086701;27;45303;-71
2023/01/22 10:35:05;;;;;;;1.60;1.43;;;13.10;46.20;;;;;;5087604;27;45310;-71
2023/01/22 10:37:44;;;;;;;1.47;1.37;;;13.10;46.30;;;;;;5087743;27;45184;-72
2023/01/22 10:40:21;;;;;;;1.40;1.30;;;13.10;46.30;;;;;;5087968;27;45314;-72
2023/01/22 10:42:58;;;;;;;1.77;1.50;;;13.00;46.20;;;;;;5087491;27;45308;-71
2023/01/22 10:45:25;;;;;;;1.60;1.50;;;13.00;46.30;;;;;;5087572;27;45241;-72
2023/01/22 10:48:02;;;;;;;1.40;1.30;;;13.00;46.30;;;;;;5087558;27;45296;-72
2023/01/22 10:50:29;;;;;;;1.93;1.40;;;13.00;46.40;;;;;;5087839;27;45408;-72
2023/01/22 10:52:58;;;;;;;1.93;1.50;;;13.00;46.40;;;;;;5087418;27;47829;-72
2023/01/22 10:55:25;;;;;;;1.77;1.63;;;13.00;46.50;;;;;;5087167;27;45247;-71
2023/01/22 10:57:54;;;;;;;1.30;1.17;;;13.00;46.50;;;;;;5087392;27;45341;-72
2023/01/22 11:00:23;;;;;;;2.00;1.73;;;13.00;46.50;;;;;;5087526;27;45355;-72
2023/01/22 11:02:50;;;;;;;1.53;1.43;;;13.00;46.60;;;;;;5087076;27;45248;-71
2023/01/22 11:05:18;;;;;;;1.57;1.40;;;13.00;46.70;;;;;;5087008;27;45245;-72
2023/01/22 11:07:45;;;;;;;1.85;1.58;;;13.00;46.70;;;;;;5087117;27;45322;-72
2023/01/22 11:10:18;;;;;;;1.67;1.58;;;13.00;46.70;;;;;;5087523;27;45260;-72
2023/01/22 11:12:46;;;;;;;2.20;1.48;;;13.00;47.30;;;;;;5086996;27;46623;-72
2023/01/22 11:15:24;;;;;;;1.63;1.33;;;13.00;46.80;;;;;;5086998;27;45248;-72
2023/01/22 11:17:51;;;;;;;1.60;1.50;;;13.00;46.80;;;;;;5086975;27;45236;-72
2023/01/22 11:20:21;;;;;;;1.60;1.50;;;13.00;46.80;;;;;;5086998;27;45447;-70
2023/01/22 11:22:53;;;;;;;1.40;1.30;;;13.00;46.80;;;;;;5086863;27;46547;-72
2023/01/22 11:25:22;;;;;;;1.52;1.42;;;13.00;46.80;;;;;;5086183;27;45304;-72
2023/01/22 11:27:55;;;;;;;1.53;1.43;;;13.00;46.80;;;;;;5087143;27;45308;-71
2023/01/22 11:30:45;;;;;;;2.00;1.50;;;13.00;46.90;;;;;;5086843;27;45295;-70
2023/01/22 11:33:21;;;;;;;1.53;1.40;;;12.90;46.80;;;;;;5086618;27;45213;-70
2023/01/22 11:35:51;;;;;;;1.70;1.60;;;12.90;46.80;;;;;;5086622;27;45185;-73
2023/01/22 11:38:22;;;;;;;1.38;1.27;;;12.90;46.90;;;;;;5086870;27;45417;-70
2023/01/22 11:40:59;;;;;;;1.70;1.60;;;12.90;46.90;;;;;;5086754;27;45431;-69
2023/01/22 11:43:33;;;;;;;1.83;1.33;;;12.90;46.90;;;;;;5085861;27;46548;-68
2023/01/22 11:46:19;;;;;;;1.10;1.10;;;12.90;46.90;;;;;;5086152;27;46067;-70
2023/01/22 11:48:57;;;;;;;1.53;1.40;;;12.90;47.00;;;;;;5086393;27;45279;-72
2023/01/22 11:51:28;;;;;;;1.60;1.50;;;12.90;47.00;;;;;;5070805;27;45415;-72
2023/01/22 11:54:11;;;;;;;1.80;1.53;;;12.90;47.00;;;;;;5079958;28;45405;-71
2023/01/22 11:56:49;;;;;;;1.63;1.53;;;12.90;47.00;;;;;;5070809;28;45141;-72
2023/01/22 11:59:20;;;;;;;1.33;1.20;;;12.90;47.00;;;;;;5083751;27;45283;-71
2023/01/22 12:01:56;;;;;;;1.50;1.40;;;12.90;47.00;;;;;;5086686;27;45243;-72
2023/01/22 12:04:35;;;;;;;1.57;1.47;;;12.90;47.00;;;;;;5085656;27;46387;-72
2023/01/22 12:07:56;;;;;;;1.60;1.42;;;12.90;47.00;;;;;;5078560;27;45457;-71
2023/01/22 12:10:34;;;;;;;1.95;1.25;;;12.90;47.00;;;;;;5015200;28;45306;-72
2023/01/22 12:13:04;;;;;;;1.15;1.13;;;12.90;47.60;;;;;;5018243;28;45548;-72
2023/01/22 12:15:38;;;;;;;1.50;1.40;;;12.90;47.00;;;;;;5050542;27;46287;-71
2023/01/22 12:18:19;;;;;;;1.13;1.13;;;12.90;47.00;;;;;;5080421;27;45450;-71
2023/01/22 12:21:05;;;;;;;1.63;1.53;;;12.90;47.00;;;;;;5088589;27;45426;-72
2023/01/22 12:23:34;;;;;;;1.40;1.30;;;12.90;47.00;;;;;;5082398;27;45356;-72
2023/01/22 12:26:04;;;;;;;1.60;1.50;;;12.90;47.00;;;;;;5067563;28;45498;-72
2023/01/22 12:28:35;;;;;;;1.70;1.43;;;12.90;47.60;;;;;;5080916;27;45384;-73
2023/01/22 12:31:13;;;;;;;4.10;1.50;;;12.90;47.10;;;;;;5083318;27;45372;-73
2023/01/22 12:33:41;;;;;;;1.80;1.30;;;12.90;47.00;;;;;;5068519;27;45390;-74
2023/01/22 12:36:11;;;;;;;1.53;1.20;;;12.90;47.10;;;;;;5082290;27;45386;-72
2023/01/22 12:38:42;;;;;;;1.57;1.40;;;12.90;47.10;;;;;;5083048;27;45391;-72
2023/01/22 12:41:23;;;;;;;1.43;1.33;;;12.90;47.10;;;;;;5085537;27;45430;-72
2023/01/22 12:43:52;;;;;;;3.73;1.53;;;12.90;47.10;;;;;;5071071;28;45487;-72
2023/01/22 12:46:24;;;;;;;1.53;1.43;;;12.90;47.10;;;;;;5079845;27;46290;-72
2023/01/22 12:48:57;;;;;;;1.33;1.23;;;12.80;47.10;;;;;;5092755;27;45347;-73
2023/01/22 12:51:28;;;;;;;1.47;1.37;;;12.80;47.10;;;;;;5080552;28;45734;-72
2023/01/22 12:53:54;;;;;;;1.33;1.20;;;12.80;47.70;;;;;;5078305;27;45418;-70
2023/01/22 12:56:31;;;;;;;1.40;1.30;;;12.80;47.70;;;;;;5074361;27;47349;-72
2023/01/22 12:58:59;;;;;;;1.77;1.40;;;12.80;47.10;;;;;;5084893;27;45407;-71
2023/01/22 13:01:32;;;;;;;1.73;1.40;;;12.80;47.10;;;;;;5085608;28;45493;-70
2023/01/22 13:04:00;;;;;;;1.88;1.55;;;12.80;47.20;;;;;;5083263;28;45373;-71
2023/01/22 13:06:32;;;;;;;1.60;1.48;;;12.80;47.10;;;;;;5085529;27;47009;-71